createdAt,value
2018-01-03T00:00:27.048Z,63.85
2018-01-03T00:01:27.063Z,63.96
2018-01-03T00:02:27.045Z,63.93
2018-01-03T00:03:27.071Z,63.95
2018-01-03T00:04:27.049Z,64.32
2018-01-03T00:05:27.053Z,64.06
2018-01-03T00:06:27.055Z,64.5
2018-01-03T00:07:27.055Z,64.21
2018-01-03T00:08:27.075Z,64.51
2018-01-03T00:09:27.056Z,64.62
2018-01-03T00:10:27.055Z,64.65
2018-01-03T00:11:27.061Z,64.81
2018-01-03T00:12:27.057Z,64.88
2018-01-03T00:13:27.081Z,64.97
2018-01-03T00:14:27.067Z,64.94
2018-01-03T00:15:27.057Z,65.08
2018-01-03T00:16:27.067Z,64.96
2018-01-03T00:17:27.062Z,64.97
2018-01-03T00:18:27.272Z,65.07
2018-01-03T00:19:27.062Z,64.77
2018-01-03T00:20:27.064Z,65.15
2018-01-03T00:21:27.066Z,64.7
2018-01-03T00:22:27.069Z,64.62
2018-01-03T00:23:27.096Z,65.01
2018-01-03T00:24:27.070Z,64.81
2018-01-03T00:25:27.068Z,65.2
2018-01-03T00:26:27.073Z,65.28
2018-01-03T00:27:27.072Z,65.83
2018-01-03T00:28:27.098Z,65.34
2018-01-03T00:29:27.081Z,65.76
2018-01-03T00:30:27.076Z,65.46
2018-01-03T00:31:27.071Z,65.79
2018-01-03T00:32:27.073Z,65.8
2018-01-03T00:33:27.105Z,65.56
2018-01-03T00:34:27.076Z,65.67
2018-01-03T00:35:27.133Z,65.71
2018-01-03T00:36:27.106Z,65.78
2018-01-03T00:37:27.077Z,65.65
2018-01-03T00:38:27.119Z,65.65
2018-01-03T00:39:27.084Z,65.6
2018-01-03T00:40:27.092Z,65.98
2018-01-03T00:41:27.088Z,65.77
2018-01-03T00:42:27.086Z,65.76
2018-01-03T00:43:27.109Z,66.45
2018-01-03T00:44:27.085Z,66.56
2018-01-03T00:45:27.087Z,66.22
2018-01-03T00:46:27.094Z,66.45
2018-01-03T00:47:27.091Z,66.26
2018-01-03T00:48:27.117Z,66.55
2018-01-03T00:49:27.093Z,66.17
2018-01-03T00:50:27.136Z,66.75
2018-01-03T00:51:27.140Z,66.33
2018-01-03T00:52:27.107Z,66.64
2018-01-03T00:53:27.097Z,66.3
2018-01-03T00:54:27.129Z,66.13
2018-01-03T00:55:27.097Z,66.56
2018-01-03T00:56:27.099Z,66.72
2018-01-03T00:57:27.104Z,66.49
2018-01-03T00:58:27.100Z,66.34
2018-01-03T00:59:27.128Z,66.47
2018-01-03T01:00:27.105Z,66.45
2018-01-03T01:01:27.103Z,66.4
2018-01-03T01:02:27.103Z,66.6
2018-01-03T01:03:27.111Z,66.92
2018-01-03T01:04:27.130Z,66.86
2018-01-03T01:05:27.113Z,66.61
2018-01-03T01:06:27.111Z,66.57
2018-01-03T01:07:27.107Z,66.5
2018-01-03T01:08:27.145Z,66.89
2018-01-03T01:09:27.139Z,66.64
2018-01-03T01:10:27.119Z,66.39
2018-01-03T01:11:27.112Z,66.31
2018-01-03T01:12:27.114Z,66.46
2018-01-03T01:13:27.121Z,66.38
2018-01-03T01:14:27.142Z,66.5
2018-01-03T01:15:27.114Z,66.6
2018-01-03T01:16:27.117Z,66.62
2018-01-03T01:17:27.173Z,66.83
2018-01-03T01:18:27.120Z,66.66
2018-01-03T01:19:27.142Z,66.6
2018-01-03T01:20:27.121Z,66.52
2018-01-03T01:21:27.121Z,66.8
2018-01-03T01:22:27.138Z,66.65
2018-01-03T01:23:27.125Z,66.58
2018-01-03T01:24:27.161Z,66.76
2018-01-03T01:25:27.126Z,66.99
2018-01-03T01:26:27.128Z,67.07
2018-01-03T01:27:27.136Z,67.39
2018-01-03T01:28:27.172Z,66.94
2018-01-03T01:29:27.166Z,67.44
2018-01-03T01:30:27.176Z,66.98
2018-01-03T01:31:27.134Z,67.3
2018-01-03T01:32:27.129Z,67.21
2018-01-03T01:33:27.136Z,66.89
2018-01-03T01:34:27.160Z,67.25
2018-01-03T01:35:27.137Z,67.22
2018-01-03T01:36:27.136Z,67.3
2018-01-03T01:37:27.134Z,66.8
2018-01-03T01:38:27.143Z,67.29
2018-01-03T01:39:27.160Z,67.15
2018-01-03T01:40:27.135Z,67.41
2018-01-03T01:41:27.139Z,67.54
2018-01-03T01:42:27.148Z,67.39
2018-01-03T01:43:27.142Z,67.5
2018-01-03T01:44:27.167Z,67.88
2018-01-03T01:45:27.145Z,67.43
2018-01-03T01:46:27.150Z,67.57
2018-01-03T01:47:27.149Z,67.36
2018-01-03T01:48:27.149Z,67.28
2018-01-03T01:49:27.153Z,67.29
2018-01-03T01:50:27.149Z,67.36
2018-01-03T01:51:27.148Z,67.58
2018-01-03T01:52:27.154Z,67.71
2018-01-03T01:53:27.151Z,67.48
2018-01-03T01:54:27.160Z,67.34
2018-01-03T01:55:27.155Z,67.53
2018-01-03T01:56:27.157Z,67.73
2018-01-03T01:57:27.153Z,67.51
2018-01-03T01:58:27.161Z,67.77
2018-01-03T01:59:27.160Z,67.54
2018-01-03T02:00:27.162Z,67.31
2018-01-03T02:01:27.171Z,67.5
2018-01-03T02:02:27.160Z,67.24
2018-01-03T02:03:27.165Z,67.29
2018-01-03T02:04:27.160Z,67.44
2018-01-03T02:05:27.162Z,67.71
2018-01-03T02:06:27.171Z,67.74
2018-01-03T02:07:27.163Z,67.32
2018-01-03T02:08:27.163Z,67.39
2018-01-03T02:09:27.191Z,67.33
2018-01-03T02:10:27.169Z,67.51
2018-01-03T02:11:27.167Z,67.84
2018-01-03T02:12:27.177Z,67.78
2018-01-03T02:13:27.168Z,67.94
2018-01-03T02:14:27.206Z,67.83
2018-01-03T02:15:27.173Z,67.65
2018-01-03T02:16:27.171Z,68.12
2018-01-03T02:17:27.176Z,67.91
2018-01-03T02:18:27.173Z,68.09
2018-01-03T02:19:27.205Z,68.16
2018-01-03T02:20:27.185Z,67.86
2018-01-03T02:21:27.180Z,67.89
2018-01-03T02:22:27.199Z,68.42
2018-01-03T02:23:27.180Z,67.71
2018-01-03T02:24:27.211Z,68.32
2018-01-03T02:25:27.184Z,67.96
2018-01-03T02:26:27.180Z,68.17
2018-01-03T02:27:27.187Z,68.08
2018-01-03T02:28:27.189Z,68.04
2018-01-03T02:29:27.207Z,67.66
2018-01-03T02:30:27.191Z,67.8
2018-01-03T02:31:27.190Z,67.45
2018-01-03T02:32:27.190Z,67.85
2018-01-03T02:33:27.190Z,67.4
2018-01-03T02:34:27.215Z,67.49
2018-01-03T02:35:27.197Z,67.5
2018-01-03T02:36:27.204Z,67.23
2018-01-03T02:37:27.196Z,67.33
2018-01-03T02:38:27.194Z,67.67
2018-01-03T02:39:27.224Z,67.25
2018-01-03T02:40:27.261Z,67.46
2018-01-03T02:41:27.201Z,67.49
2018-01-03T02:42:27.224Z,67.09
2018-01-03T02:43:42.484Z,67.17
2018-01-03T02:44:27.234Z,66.92
2018-01-03T02:45:27.199Z,67.15
2018-01-03T02:46:27.315Z,67.35
2018-01-03T02:47:27.201Z,67.2
2018-01-03T02:48:27.209Z,66.98
2018-01-03T02:49:27.229Z,66.9
2018-01-03T02:50:27.202Z,67.03
2018-01-03T02:51:27.203Z,67.19
2018-01-03T02:52:27.211Z,67.37
2018-01-03T02:53:27.207Z,67.47
2018-01-03T02:54:27.251Z,67.27
2018-01-03T02:55:27.215Z,67.3
2018-01-03T02:56:27.210Z,67.82
2018-01-03T02:57:27.219Z,67.52
2018-01-03T02:58:27.210Z,67.03
2018-01-03T02:59:27.212Z,68.76
2018-01-03T03:00:27.258Z,69.33
2018-01-03T03:01:27.671Z,69.33
2018-01-03T03:02:27.278Z,68.71
2018-01-03T03:03:27.221Z,67.4
2018-01-03T03:04:27.217Z,67.91
2018-01-03T03:05:27.242Z,68.31
2018-01-03T03:06:27.222Z,68.85
2018-01-03T03:07:27.220Z,68
2018-01-03T03:08:28.696Z,67.34
2018-01-03T03:09:27.223Z,68.3
2018-01-03T03:10:27.245Z,68
2018-01-03T03:11:27.232Z,67.6
2018-01-03T03:12:27.226Z,67.8
2018-01-03T03:13:27.226Z,66.88
2018-01-03T03:14:27.227Z,66.88
2018-01-03T03:15:27.252Z,67.11
2018-01-03T03:16:27.236Z,67.47
2018-01-03T03:17:27.230Z,66.93
2018-01-03T03:18:27.228Z,67.76
2018-01-03T03:19:27.230Z,67.47
2018-01-03T03:20:27.263Z,66.83
2018-01-03T03:21:27.240Z,67.37
2018-01-03T03:22:27.239Z,67.75
2018-01-03T03:23:27.245Z,67.34
2018-01-03T03:24:27.233Z,67.91
2018-01-03T03:25:27.258Z,67.87
2018-01-03T03:26:27.240Z,67.79
2018-01-03T03:27:27.239Z,67.85
2018-01-03T03:28:27.240Z,67.4
2018-01-03T03:29:27.245Z,67.52
2018-01-03T03:30:27.268Z,67.63
2018-01-03T03:31:27.246Z,67.41
2018-01-03T03:32:27.275Z,67.85
2018-01-03T03:33:27.270Z,67.65
2018-01-03T03:34:27.244Z,67.64
2018-01-03T03:35:27.268Z,67.75
2018-01-03T03:36:27.249Z,67.13
2018-01-03T03:37:28.841Z,67.1
2018-01-03T03:38:27.252Z,67.48
2018-01-03T03:39:27.253Z,67.07
2018-01-03T03:40:27.272Z,67.01
2018-01-03T03:41:27.255Z,67.14
2018-01-03T03:42:27.254Z,67.02
2018-01-03T03:43:27.257Z,67.14
2018-01-03T03:44:27.256Z,67.04
2018-01-03T03:45:27.266Z,67.06
2018-01-03T03:46:27.255Z,67.44
2018-01-03T03:47:27.257Z,67.11
2018-01-03T03:48:27.256Z,67.43
2018-01-03T03:49:27.268Z,67.05
2018-01-03T03:50:27.265Z,67.26
2018-01-03T03:51:27.262Z,67.58
2018-01-03T03:52:27.267Z,66.76
2018-01-03T03:53:27.266Z,67.29
2018-01-03T03:54:27.266Z,67.41
2018-01-03T03:55:27.263Z,66.96
2018-01-03T03:56:27.271Z,65.01
2018-01-03T03:57:27.268Z,66.66
2018-01-03T03:58:27.272Z,65.33
2018-01-03T03:59:27.268Z,64.99
2018-01-03T04:00:27.279Z,64.78
2018-01-03T04:01:27.269Z,64.78
2018-01-03T04:02:27.273Z,64.79
2018-01-03T04:03:27.275Z,65.16
2018-01-03T04:04:27.273Z,64.84
2018-01-03T04:05:27.295Z,65.24
2018-01-03T04:06:27.278Z,65.17
2018-01-03T04:07:27.276Z,65.13
2018-01-03T04:08:27.276Z,65.26
2018-01-03T04:09:27.276Z,65.31
2018-01-03T04:10:27.279Z,65.33
2018-01-03T04:11:27.280Z,65.3
2018-01-03T04:12:27.285Z,65.5
2018-01-03T04:13:27.284Z,64.97
2018-01-03T04:14:27.289Z,65.03
2018-01-03T04:15:27.304Z,65.11
2018-01-03T04:16:27.288Z,65.1
2018-01-03T04:17:27.291Z,65.14
2018-01-03T04:18:27.290Z,65.51
2018-01-03T04:19:27.289Z,65.46
2018-01-03T04:20:27.316Z,65.22
2018-01-03T04:21:27.295Z,65.71
2018-01-03T04:22:27.291Z,65.51
2018-01-03T04:23:27.296Z,65.55
2018-01-03T04:24:27.292Z,65.26
2018-01-03T04:25:27.314Z,65.55
2018-01-03T04:26:27.293Z,65.39
2018-01-03T04:27:27.293Z,65.14
2018-01-03T04:28:27.297Z,65.42
2018-01-03T04:29:27.316Z,65.13
2018-01-03T04:30:27.323Z,64.73
2018-01-03T04:31:27.298Z,65.35
2018-01-03T04:32:27.301Z,65.01
2018-01-03T04:33:27.297Z,65.55
2018-01-03T04:34:27.307Z,65.37
2018-01-03T04:35:27.332Z,65.41
2018-01-03T04:36:27.306Z,65.25
2018-01-03T04:37:27.320Z,64.8
2018-01-03T04:38:27.313Z,65.31
2018-01-03T04:39:27.310Z,64.82
2018-01-03T04:40:27.330Z,64.47
2018-01-03T04:41:27.311Z,64.76
2018-01-03T04:42:27.311Z,65.05
2018-01-03T04:43:27.311Z,64.96
2018-01-03T04:44:27.311Z,64.92
2018-01-03T04:45:27.356Z,64.45
2018-01-03T04:46:27.320Z,64.46
2018-01-03T04:47:27.319Z,64.85
2018-01-03T04:48:27.313Z,64.38
2018-01-03T04:49:27.321Z,64.96
2018-01-03T04:50:27.344Z,64.66
2018-01-03T04:51:27.319Z,64.38
2018-01-03T04:52:27.322Z,64.73
2018-01-03T04:53:27.315Z,64.34
2018-01-03T04:54:27.324Z,64.72
2018-01-03T04:55:27.343Z,66.08
2018-01-03T04:56:27.323Z,65.99
2018-01-03T04:57:27.323Z,66.03
2018-01-03T04:58:27.343Z,65.92
2018-01-03T04:59:27.326Z,66.77
2018-01-03T05:00:27.348Z,67.98
2018-01-03T05:01:27.330Z,67.44
2018-01-03T05:02:27.333Z,67.69
2018-01-03T05:03:27.328Z,67.76
2018-01-03T05:04:27.329Z,68.1
2018-01-03T05:05:27.356Z,68.39
2018-01-03T05:06:27.361Z,68.33
2018-01-03T05:07:27.333Z,68.05
2018-01-03T05:08:27.337Z,68.42
2018-01-03T05:09:27.403Z,68.38
2018-01-03T05:10:27.360Z,68.54
2018-01-03T05:11:27.425Z,68.25
2018-01-03T05:12:27.336Z,67.78
2018-01-03T05:13:27.336Z,68.16
2018-01-03T05:14:27.342Z,68.73
2018-01-03T05:15:27.359Z,68.69
2018-01-03T05:16:27.341Z,68.58
2018-01-03T05:17:27.346Z,68.04
2018-01-03T05:18:28.753Z,68.16
2018-01-03T05:19:27.799Z,68.53
2018-01-03T05:20:27.367Z,68.63
2018-01-03T05:21:27.348Z,68.65
2018-01-03T05:22:27.353Z,68.16
2018-01-03T05:23:27.346Z,68.24
2018-01-03T05:24:27.351Z,68.37
2018-01-03T05:25:27.380Z,68.16
2018-01-03T05:26:27.352Z,68.66
2018-01-03T05:27:27.397Z,68.22
2018-01-03T05:28:27.600Z,68.54
2018-01-03T05:29:27.352Z,68.31
2018-01-03T05:30:27.597Z,68.21
2018-01-03T05:31:27.354Z,68.34
2018-01-03T05:32:27.371Z,68.09
2018-01-03T05:33:33.829Z,68.06
2018-01-03T05:34:27.357Z,67.83
2018-01-03T05:35:27.362Z,67.85
2018-01-03T05:36:27.359Z,67.98
2018-01-03T05:37:27.367Z,67.88
2018-01-03T05:38:27.366Z,67.96
2018-01-03T05:39:27.368Z,67.95
2018-01-03T05:40:27.385Z,67.87
2018-01-03T05:41:27.367Z,67.95
2018-01-03T05:42:27.374Z,68.1
2018-01-03T05:43:27.374Z,67.78
2018-01-03T05:44:27.372Z,68.01
2018-01-03T05:45:27.372Z,68
2018-01-03T05:46:27.385Z,67.97
2018-01-03T05:47:27.373Z,68.01
2018-01-03T05:48:27.371Z,68.13
2018-01-03T05:49:27.378Z,67.48
2018-01-03T05:50:27.370Z,67.72
2018-01-03T05:51:27.375Z,67.95
2018-01-03T05:52:27.376Z,67.47
2018-01-03T05:53:27.382Z,68.32
2018-01-03T05:54:27.379Z,67.44
2018-01-03T05:55:27.381Z,67.61
2018-01-03T05:56:27.387Z,67.61
2018-01-03T05:57:27.381Z,67.88
2018-01-03T05:58:27.376Z,67.8
2018-01-03T05:59:27.407Z,67.74
2018-01-03T06:00:27.380Z,68.04
2018-01-03T06:01:27.386Z,67.65
2018-01-03T06:02:27.385Z,67.67
2018-01-03T06:03:27.383Z,67.38
2018-01-03T06:04:27.390Z,67.67
2018-01-03T06:05:27.389Z,67.25
2018-01-03T06:06:27.412Z,67.5
2018-01-03T06:07:27.390Z,67.46
2018-01-03T06:08:27.387Z,67.41
2018-01-03T06:09:27.387Z,67.04
2018-01-03T06:10:27.394Z,66.95
2018-01-03T06:11:27.418Z,66.97
2018-01-03T06:12:27.392Z,67.21
2018-01-03T06:13:27.395Z,66.96
2018-01-03T06:14:27.395Z,67.25
2018-01-03T06:15:27.445Z,67.31
2018-01-03T06:16:27.424Z,67.1
2018-01-03T06:17:27.402Z,66.94
2018-01-03T06:18:27.403Z,67.25
2018-01-03T06:19:27.399Z,67.03
2018-01-03T06:20:27.403Z,67.08
2018-01-03T06:21:27.425Z,66.73
2018-01-03T06:22:27.402Z,66.8
2018-01-03T06:23:27.400Z,67.02
2018-01-03T06:24:27.408Z,67.21
2018-01-03T06:25:27.411Z,67.01
2018-01-03T06:26:27.721Z,66.71
2018-01-03T06:27:27.445Z,66.57
2018-01-03T06:28:27.412Z,66.66
2018-01-03T06:29:27.412Z,66.97
2018-01-03T06:30:27.414Z,67.23
2018-01-03T06:31:27.432Z,67.01
2018-01-03T06:32:27.410Z,66.69
2018-01-03T06:33:27.409Z,66.55
2018-01-03T06:34:27.422Z,66.71
2018-01-03T06:35:27.463Z,67.13
2018-01-03T06:36:31.198Z,66.99
2018-01-03T06:37:27.416Z,66.66
2018-01-03T06:38:27.416Z,67.07
2018-01-03T06:39:27.694Z,66.63
2018-01-03T06:40:27.689Z,66.66
2018-01-03T06:41:27.444Z,67.15
2018-01-03T06:42:27.425Z,66.86
2018-01-03T06:43:27.422Z,66.61
2018-01-03T06:44:27.732Z,66.63
2018-01-03T06:45:27.698Z,66.65
2018-01-03T06:46:29.680Z,67.05
2018-01-03T06:47:27.552Z,66.58
2018-01-03T06:48:27.431Z,66.87
2018-01-03T06:49:27.440Z,66.95
2018-01-03T06:50:27.427Z,67.16
2018-01-03T06:51:27.453Z,66.87
2018-01-03T06:52:27.476Z,66.75
2018-01-03T06:53:27.427Z,66.83
2018-01-03T06:54:27.432Z,66.99
2018-01-03T06:55:27.453Z,67.09
2018-01-03T06:56:27.453Z,66.74
2018-01-03T06:57:27.747Z,66.8
2018-01-03T06:58:27.433Z,67.05
2018-01-03T06:59:27.440Z,67.22
2018-01-03T07:00:27.435Z,66.73
2018-01-03T07:01:27.460Z,66.92
2018-01-03T07:02:27.446Z,66.75
2018-01-03T07:03:27.440Z,67.21
2018-01-03T07:04:27.438Z,67.04
2018-01-03T07:05:27.529Z,66.73
2018-01-03T07:06:27.559Z,66.72
2018-01-03T07:07:27.446Z,66.74
2018-01-03T07:08:27.513Z,66.61
2018-01-03T07:09:27.440Z,67.13
2018-01-03T07:10:27.447Z,66.61
2018-01-03T07:11:27.452Z,67.14
2018-01-03T07:12:27.446Z,67.07
2018-01-03T07:13:27.452Z,66.68
2018-01-03T07:14:27.457Z,66.8
2018-01-03T07:15:27.449Z,66.61
2018-01-03T07:16:27.499Z,66.72
2018-01-03T07:17:27.455Z,66.54
2018-01-03T07:18:27.451Z,67.05
2018-01-03T07:19:27.456Z,67.13
2018-01-03T07:20:27.453Z,66.82
2018-01-03T07:21:27.476Z,66.95
2018-01-03T07:22:27.455Z,66.62
2018-01-03T07:23:27.457Z,66.94
2018-01-03T07:24:27.462Z,67
2018-01-03T07:25:27.461Z,66.75
2018-01-03T07:26:27.491Z,67.03
2018-01-03T07:27:27.465Z,66.63
2018-01-03T07:28:27.466Z,66.93
2018-01-03T07:29:27.462Z,66.79
2018-01-03T07:30:27.463Z,67.02
2018-01-03T07:31:27.472Z,66.51
2018-01-03T07:32:27.506Z,66.81
2018-01-03T07:33:27.467Z,66.94
2018-01-03T07:34:27.465Z,66.57
2018-01-03T07:35:27.468Z,66.73
2018-01-03T07:36:27.469Z,66.88
2018-01-03T07:37:27.479Z,66.5
2018-01-03T07:38:27.470Z,67
2018-01-03T07:39:27.474Z,66.88
2018-01-03T07:40:27.469Z,66.62
2018-01-03T07:41:27.476Z,66.73
2018-01-03T07:42:27.478Z,66.94
2018-01-03T07:43:27.478Z,66.47
2018-01-03T07:44:27.475Z,66.82
2018-01-03T07:45:27.481Z,66.6
2018-01-03T07:46:27.476Z,66.76
2018-01-03T07:47:27.489Z,66.76
2018-01-03T07:48:27.482Z,66.75
2018-01-03T07:49:27.483Z,66.36
2018-01-03T07:50:27.495Z,66.4
2018-01-03T07:51:27.527Z,66.42
2018-01-03T07:52:27.480Z,66.81
2018-01-03T07:53:27.484Z,66.57
2018-01-03T07:54:27.489Z,66.52
2018-01-03T07:55:27.488Z,66.73
2018-01-03T07:56:27.483Z,66.82
2018-01-03T07:57:27.490Z,66.41
2018-01-03T07:58:27.487Z,66.76
2018-01-03T07:59:27.495Z,66.25
2018-01-03T08:00:27.497Z,66.37
2018-01-03T08:01:27.491Z,66.58
2018-01-03T08:02:27.513Z,66.63
2018-01-03T08:03:27.496Z,66.45
2018-01-03T08:04:27.491Z,66.47
2018-01-03T08:05:27.491Z,66.43
2018-01-03T08:06:27.491Z,66.35
2018-01-03T08:07:27.523Z,66.73
2018-01-03T08:08:27.497Z,66.25
2018-01-03T08:09:27.499Z,66.26
2018-01-03T08:10:27.553Z,66.33
2018-01-03T08:11:27.499Z,66.67
2018-01-03T08:12:27.524Z,66.39
2018-01-03T08:13:27.508Z,66.53
2018-01-03T08:14:27.504Z,66.63
2018-01-03T08:15:27.502Z,66.13
2018-01-03T08:16:27.506Z,66.49
2018-01-03T08:17:27.536Z,66.25
2018-01-03T08:18:27.515Z,66.69
2018-01-03T08:19:30.882Z,66.16
2018-01-03T08:20:27.510Z,66.28
2018-01-03T08:21:27.515Z,66.44
2018-01-03T08:22:27.531Z,66.38
2018-01-03T08:23:27.511Z,66.55
2018-01-03T08:24:27.509Z,66.49
2018-01-03T08:25:27.518Z,66.49
2018-01-03T08:26:27.514Z,66.31
2018-01-03T08:27:27.536Z,66.4
2018-01-03T08:28:27.517Z,66.48
2018-01-03T08:29:27.518Z,66.25
2018-01-03T08:30:27.521Z,66.17
2018-01-03T08:31:27.515Z,66.09
2018-01-03T08:32:27.542Z,66.07
2018-01-03T08:33:27.560Z,66.45
2018-01-03T08:34:27.516Z,66.34
2018-01-03T08:35:27.521Z,66.28
2018-01-03T08:36:27.527Z,66.11
2018-01-03T08:37:27.543Z,66.4
2018-01-03T08:38:27.526Z,66
2018-01-03T08:39:27.527Z,65.93
2018-01-03T08:40:27.528Z,66.44
2018-01-03T08:41:27.527Z,66.19
2018-01-03T08:42:27.646Z,66.13
2018-01-03T08:43:27.527Z,66.26
2018-01-03T08:44:27.532Z,65.93
2018-01-03T08:45:27.531Z,66.28
2018-01-03T08:46:27.531Z,66.13
2018-01-03T08:47:27.563Z,65.96
2018-01-03T08:48:27.535Z,66.06
2018-01-03T08:49:27.539Z,66.17
2018-01-03T08:50:27.549Z,66.29
2018-01-03T08:51:27.538Z,66.23
2018-01-03T08:52:27.556Z,66.09
2018-01-03T08:53:27.542Z,66.26
2018-01-03T08:54:27.545Z,66.15
2018-01-03T08:55:28.647Z,65.84
2018-01-03T08:56:27.547Z,66.22
2018-01-03T08:57:27.574Z,65.96
2018-01-03T08:58:27.547Z,65.75
2018-01-03T08:59:27.551Z,65.92
2018-01-03T09:00:27.549Z,65.75
2018-01-03T09:01:27.547Z,65.79
2018-01-03T09:02:27.570Z,66.03
2018-01-03T09:03:27.553Z,66.11
2018-01-03T09:04:27.551Z,65.68
2018-01-03T09:05:27.610Z,65.9
2018-01-03T09:06:27.553Z,65.78
2018-01-03T09:07:27.574Z,66.12
2018-01-03T09:08:27.559Z,65.65
2018-01-03T09:09:27.573Z,65.65
2018-01-03T09:10:27.556Z,65.82
2018-01-03T09:11:27.560Z,65.62
2018-01-03T09:12:27.580Z,65.77
2018-01-03T09:13:27.560Z,65.58
2018-01-03T09:14:27.560Z,65.66
2018-01-03T09:15:27.558Z,65.91
2018-01-03T09:16:27.564Z,65.71
2018-01-03T09:17:27.588Z,65.87
2018-01-03T09:18:27.566Z,65.65
2018-01-03T09:19:27.567Z,66.04
2018-01-03T09:20:27.566Z,65.73
2018-01-03T09:21:27.576Z,65.54
2018-01-03T09:22:27.591Z,65.56
2018-01-03T09:23:27.568Z,65.93
2018-01-03T09:24:27.569Z,65.82
2018-01-03T09:25:27.573Z,65.94
2018-01-03T09:26:27.568Z,65.57
2018-01-03T09:27:27.584Z,65.7
2018-01-03T09:28:27.572Z,65.47
2018-01-03T09:29:27.638Z,65.72
2018-01-03T09:30:27.581Z,65.71
2018-01-03T09:31:31.558Z,65.84
2018-01-03T09:32:27.589Z,65.37
2018-01-03T09:33:27.581Z,65.76
2018-01-03T09:34:27.578Z,65.85
2018-01-03T09:35:27.813Z,65.57
2018-01-03T09:36:27.583Z,65.91
2018-01-03T09:37:27.603Z,65.43
2018-01-03T09:38:27.589Z,65.41
2018-01-03T09:39:27.588Z,65.72
2018-01-03T09:40:27.585Z,65.77
2018-01-03T09:41:27.586Z,65.62
2018-01-03T09:42:27.619Z,65.18
2018-01-03T09:43:27.592Z,65.44
2018-01-03T09:44:27.590Z,65.75
2018-01-03T09:45:27.588Z,65.75
2018-01-03T09:46:27.587Z,65.65
2018-01-03T09:47:27.682Z,65.39
2018-01-03T09:48:29.271Z,65.26
2018-01-03T09:49:27.596Z,65.54
2018-01-03T09:50:27.602Z,65.72
2018-01-03T09:51:27.597Z,65.44
2018-01-03T09:52:27.597Z,65.21
2018-01-03T09:53:27.601Z,65.24
2018-01-03T09:54:27.597Z,65.52
2018-01-03T09:55:27.600Z,65.17
2018-01-03T09:56:27.598Z,65.49
2018-01-03T09:57:27.602Z,65.34
2018-01-03T09:58:27.604Z,65.56
2018-01-03T09:59:27.608Z,65.48
2018-01-03T10:00:27.605Z,65.16
2018-01-03T10:01:27.876Z,64.87
2018-01-03T10:02:27.831Z,65.19
2018-01-03T10:03:27.610Z,65.35
2018-01-03T10:04:27.608Z,65.16
2018-01-03T10:05:28.304Z,65.33
2018-01-03T10:06:27.613Z,65.06
2018-01-03T10:07:27.615Z,65.05
2018-01-03T10:08:27.615Z,65.48
2018-01-03T10:09:27.614Z,65.05
2018-01-03T10:10:27.613Z,65.5
2018-01-03T10:11:27.867Z,65.26
2018-01-03T10:12:27.620Z,65.03
2018-01-03T10:13:27.640Z,65.32
2018-01-03T10:14:27.618Z,64.99
2018-01-03T10:15:27.615Z,65.15
2018-01-03T10:16:27.699Z,64.96
2018-01-03T10:17:27.619Z,65.42
2018-01-03T10:18:27.651Z,65.06
2018-01-03T10:19:27.622Z,65.08
2018-01-03T10:20:27.628Z,65.37
2018-01-03T10:21:27.624Z,65.46
2018-01-03T10:22:27.627Z,65.2
2018-01-03T10:23:27.647Z,64.88
2018-01-03T10:24:27.626Z,64.94
2018-01-03T10:25:27.627Z,64.81
2018-01-03T10:26:27.629Z,64.85
2018-01-03T10:27:27.632Z,64.77
2018-01-03T10:28:27.655Z,64.92
2018-01-03T10:29:27.630Z,65.14
2018-01-03T10:30:27.626Z,64.99
2018-01-03T10:31:27.630Z,65.07
2018-01-03T10:32:27.739Z,65.16
2018-01-03T10:33:27.661Z,65.23
2018-01-03T10:34:27.635Z,65.11
2018-01-03T10:35:27.633Z,64.98
2018-01-03T10:36:27.643Z,64.91
2018-01-03T10:37:27.640Z,65.1
2018-01-03T10:38:27.663Z,64.81
2018-01-03T10:39:27.646Z,65.07
2018-01-03T10:40:27.639Z,65.15
2018-01-03T10:41:27.650Z,64.81
2018-01-03T10:42:27.646Z,64.94
2018-01-03T10:43:27.668Z,65.01
2018-01-03T10:44:27.646Z,64.89
2018-01-03T10:45:27.648Z,64.98
2018-01-03T10:46:27.658Z,65.01
2018-01-03T10:47:27.647Z,65.14
2018-01-03T10:48:27.671Z,64.89
2018-01-03T10:49:27.654Z,64.7
2018-01-03T10:50:27.654Z,64.9
2018-01-03T10:51:27.653Z,65.05
2018-01-03T10:52:27.657Z,65.08
2018-01-03T10:53:27.693Z,64.72
2018-01-03T10:54:27.653Z,64.73
2018-01-03T10:55:27.655Z,65.21
2018-01-03T10:56:27.659Z,64.97
2018-01-03T10:57:27.656Z,64.64
2018-01-03T10:58:27.756Z,64.97
2018-01-03T10:59:27.658Z,64.61
2018-01-03T11:00:27.660Z,64.8
2018-01-03T11:01:27.658Z,64.84
2018-01-03T11:02:27.660Z,64.97
2018-01-03T11:03:27.691Z,64.76
2018-01-03T11:04:27.673Z,65.05
2018-01-03T11:05:27.661Z,64.75
2018-01-03T11:06:27.702Z,64.69
2018-01-03T11:07:27.666Z,64.53
2018-01-03T11:08:27.694Z,64.6
2018-01-03T11:09:27.672Z,64.65
2018-01-03T11:10:27.668Z,64.86
2018-01-03T11:11:27.666Z,64.86
2018-01-03T11:12:27.668Z,64.68
2018-01-03T11:13:27.696Z,64.83
2018-01-03T11:14:27.679Z,64.73
2018-01-03T11:15:27.672Z,64.45
2018-01-03T11:16:27.674Z,64.64
2018-01-03T11:17:27.679Z,64.51
2018-01-03T11:18:27.698Z,64.69
2018-01-03T11:19:27.683Z,64.42
2018-01-03T11:20:27.681Z,64.77
2018-01-03T11:21:27.685Z,64.57
2018-01-03T11:22:27.677Z,64.59
2018-01-03T11:23:27.707Z,64.8
2018-01-03T11:24:27.682Z,64.88
2018-01-03T11:25:27.682Z,64.78
2018-01-03T11:26:27.698Z,64.91
2018-01-03T11:27:27.684Z,64.5
2018-01-03T11:28:27.709Z,64.66
2018-01-03T11:29:27.686Z,64.65
2018-01-03T11:30:27.687Z,64.9
2018-01-03T11:31:27.685Z,64.75
2018-01-03T11:32:27.687Z,64.53
2018-01-03T11:33:27.717Z,64.83
2018-01-03T11:34:27.692Z,64.84
2018-01-03T11:35:27.694Z,64.82
2018-01-03T11:36:27.693Z,64.76
2018-01-03T11:37:27.694Z,64.75
2018-01-03T11:38:27.720Z,64.73
2018-01-03T11:39:27.699Z,64.53
2018-01-03T11:40:27.698Z,64.35
2018-01-03T11:41:27.700Z,64.46
2018-01-03T11:42:27.700Z,64.54
2018-01-03T11:43:27.702Z,64.87
2018-01-03T11:44:27.701Z,64.75
2018-01-03T11:45:27.701Z,64.42
2018-01-03T11:46:27.706Z,64.59
2018-01-03T11:47:27.714Z,64.74
2018-01-03T11:48:27.754Z,64.34
2018-01-03T11:49:27.704Z,64.36
2018-01-03T11:50:27.709Z,64.51
2018-01-03T11:51:27.707Z,64.44
2018-01-03T11:52:27.705Z,64.53
2018-01-03T11:53:27.732Z,64.27
2018-01-03T11:54:27.717Z,64.65
2018-01-03T11:55:27.712Z,64.47
2018-01-03T11:56:27.722Z,64.4
2018-01-03T11:57:27.716Z,64.72
2018-01-03T11:58:27.740Z,64.47
2018-01-03T11:59:27.717Z,64.76
2018-01-03T12:00:27.716Z,64.66
2018-01-03T12:01:27.718Z,64.5
2018-01-03T12:02:27.773Z,64.77
2018-01-03T12:03:27.736Z,64.58
2018-01-03T12:04:27.719Z,64.44
2018-01-03T12:05:27.715Z,64.58
2018-01-03T12:06:27.723Z,64.76
2018-01-03T12:07:27.729Z,64.36
2018-01-03T12:08:27.721Z,64.71
2018-01-03T12:09:27.728Z,64.48
2018-01-03T12:10:27.719Z,64.22
2018-01-03T12:11:27.730Z,64.25
2018-01-03T12:12:27.722Z,64.48
2018-01-03T12:13:27.744Z,64.79
2018-01-03T12:14:27.731Z,64.29
2018-01-03T12:15:27.727Z,64.23
2018-01-03T12:16:27.730Z,64.23
2018-01-03T12:17:27.732Z,64.36
2018-01-03T12:18:27.731Z,64.28
2018-01-03T12:19:27.737Z,64.15
2018-01-03T12:20:27.738Z,64.42
2018-01-03T12:21:27.736Z,64.55
2018-01-03T12:22:27.738Z,64.15
2018-01-03T12:23:27.734Z,64.11
2018-01-03T12:24:27.762Z,64.38
2018-01-03T12:25:27.738Z,64.52
2018-01-03T12:26:27.739Z,64.49
2018-01-03T12:27:27.740Z,64.18
2018-01-03T12:28:27.742Z,64.45
2018-01-03T12:29:27.768Z,64.17
2018-01-03T12:30:27.744Z,64.5
2018-01-03T12:31:27.741Z,64.47
2018-01-03T12:32:27.743Z,64.03
2018-01-03T12:33:27.749Z,64.49
2018-01-03T12:34:27.770Z,64.55
2018-01-03T12:35:27.752Z,64.31
2018-01-03T12:36:27.755Z,64.6
2018-01-03T12:37:27.747Z,64.1
2018-01-03T12:38:27.750Z,64.06
2018-01-03T12:39:27.780Z,64.11
2018-01-03T12:40:27.755Z,64.53
2018-01-03T12:41:27.752Z,64.49
2018-01-03T12:42:27.751Z,64.15
2018-01-03T12:43:27.757Z,64.14
2018-01-03T12:44:27.777Z,64.1
2018-01-03T12:45:27.764Z,64.49
2018-01-03T12:46:27.756Z,64.37
2018-01-03T12:47:27.760Z,64.5
2018-01-03T12:48:27.757Z,64.21
2018-01-03T12:49:27.833Z,64.51
2018-01-03T12:50:27.830Z,64.11
2018-01-03T12:51:27.764Z,64.21
2018-01-03T12:52:27.778Z,64.52
2018-01-03T12:53:27.765Z,64.18
2018-01-03T12:54:27.861Z,64.33
2018-01-03T12:55:27.842Z,64.56